Terminal Aerodrome Forecast
Issued by NWS

Home | Current Version | Previous Version | Text Only | Print | Product List | Glossary On
Versions: 1 2 3 4 5 6 7 8 9 10 11 12 13 14 15 16 17
000
FTUS43 KMQT 250522
TAFCMX
TAF
KCMX 250522Z 2506/2606 10005KT 3SM BR OVC002
      TEMPO 2507/2511 3/4SM BR
     FM251300 09007KT 6SM BR BKN008
     FM251600 10011KT P6SM BKN090
     FM252300 10010KT P6SM VCSH OVC060=

USA.gov is the U.S. government's official web portal to all federal, state and local government web resources and services.